This is the latest recevied weather packets stored in our database for station/object PP5MGT-13. If no packets are shown the sender has not sent any weather packets the latest 10 day(s).
| Time | Temp. | Humidity | Pressure | Rain* | Wind** | Luminosity | Snow |
|---|---|---|---|---|---|---|---|
| 1777599932 | 20.56° C | 89% | 1020.5 hPa | - | - | - | - |
| 1777599031 | 20.56° C | 89% | 1020.5 hPa | - | - | - | - |
| 1777598131 | 20.56° C | 89% | 1020.5 hPa | - | - | - | - |
| 1777596329 | 20.56° C | 87% | 1020.1 hPa | - | - | - | - |
| 1777595428 | 20.56° C | 87% | 1020 hPa | - | - | - | - |
| 1777594528 | 21.11° C | 87% | 1019.9 hPa | - | - | - | - |
| 1777592726 | 21.67° C | 83% | 1019.5 hPa | - | - | - | - |
| 1777591824 | 21.67° C | 83% | 1019.4 hPa | - | - | - | - |
| 1777590923 | 21.67° C | 83% | 1019.3 hPa | - | - | - | - |
| 1777587316 | 22.22° C | 79% | 1018.2 hPa | - | - | - | - |
| 1777585513 | 22.78° C | 77% | 1017.5 hPa | - | - | - | - |
| 1777584613 | 22.78° C | 77% | 1017.5 hPa | - | - | - | - |
| 1777579205 | 25° C | 63% | 1016.6 hPa | - | - | - | - |
| 1777578302 | 25° C | 64% | 1016.6 hPa | - | - | - | - |
| 1777573794 | 25° C | 61% | 1016.6 hPa | - | - | - | - |
| 1777571992 | 25.56° C | 60% | 1016.7 hPa | - | - | - | - |
| 1777567484 | 25° C | 63% | 1017.1 hPa | - | - | - | - |
| 1777564779 | 24.44° C | 66% | 1017.7 hPa | - | - | - | - |
| 1777563878 | 23.89° C | 67% | 1017.8 hPa | - | - | - | - |
| 1777562977 | 23.89° C | 68% | 1017.9 hPa | - | - | - | - |
| 1777562076 | 23.89° C | 68% | 1017.9 hPa | - | - | - | - |
| 1777561175 | 23.33° C | 70% | 1018.4 hPa | - | - | - | - |
| 1777560274 | 23.33° C | 70% | 1018.6 hPa | - | - | - | - |
| 1777557570 | 21.67° C | 79% | 1018.9 hPa | - | - | - | - |
| 1777555765 | 21.67° C | 82% | 1018.9 hPa | - | - | - | - |
* Rain since midnight (hover to see other rain measurements)
** Current wind speed in m/s (hover to see current wind gust speed)